createdAt,value
2022-10-05T00:00:57.582Z,824.51
2022-10-05T00:01:57.644Z,824.52
2022-10-05T00:02:57.603Z,824.51
2022-10-05T00:03:57.679Z,824.54
2022-10-05T00:04:57.665Z,824.48
2022-10-05T00:05:57.642Z,824.49
2022-10-05T00:06:57.657Z,824.47
2022-10-05T00:07:57.673Z,824.47
2022-10-05T00:08:57.690Z,824.50
2022-10-05T00:09:57.699Z,824.44
2022-10-05T00:10:57.709Z,824.50
2022-10-05T00:11:57.724Z,824.49
2022-10-05T00:12:57.739Z,824.49
2022-10-05T00:13:57.752Z,824.51
2022-10-05T00:14:57.794Z,824.49
2022-10-05T00:15:57.788Z,824.46
2022-10-05T00:16:57.877Z,824.52
2022-10-05T00:17:57.808Z,824.52
2022-10-05T00:18:57.821Z,824.50
2022-10-05T00:19:57.846Z,824.50
2022-10-05T00:20:57.851Z,824.49
2022-10-05T00:21:57.868Z,824.48
2022-10-05T00:22:57.879Z,824.49
2022-10-05T00:23:57.907Z,824.45
2022-10-05T00:24:57.909Z,824.49
2022-10-05T00:25:57.935Z,824.44
2022-10-05T00:26:58.457Z,824.44
2022-10-05T00:27:58.062Z,824.45
2022-10-05T00:28:57.964Z,824.43
2022-10-05T00:29:57.983Z,824.41
2022-10-05T00:30:58.015Z,824.42
2022-10-05T00:31:58.033Z,824.41
2022-10-05T00:32:59.771Z,824.42
2022-10-05T00:33:58.031Z,824.42
2022-10-05T00:34:58.046Z,824.43
2022-10-05T00:35:58.061Z,824.38
2022-10-05T00:36:58.073Z,824.40
2022-10-05T00:37:58.086Z,824.40
2022-10-05T00:38:58.100Z,824.41
2022-10-05T00:39:58.115Z,824.41
2022-10-05T00:40:58.126Z,824.40
2022-10-05T00:41:58.143Z,824.41
2022-10-05T00:42:58.158Z,824.42
2022-10-05T00:43:58.167Z,824.42
2022-10-05T00:44:58.182Z,824.48
2022-10-05T00:45:58.244Z,824.42
2022-10-05T00:46:58.234Z,824.46
2022-10-05T00:47:58.221Z,824.44
2022-10-05T00:48:58.252Z,824.42
2022-10-05T00:49:58.253Z,824.43
2022-10-05T00:50:58.264Z,824.40
2022-10-05T00:51:58.281Z,824.43
2022-10-05T00:52:58.294Z,824.42
2022-10-05T00:53:58.311Z,824.41
2022-10-05T00:54:58.320Z,824.38
2022-10-05T00:55:58.335Z,824.40
2022-10-05T00:56:58.349Z,824.37
2022-10-05T00:57:58.363Z,824.36
2022-10-05T00:58:58.380Z,824.36
2022-10-05T00:59:58.388Z,824.34
2022-10-05T01:00:58.470Z,824.36
2022-10-05T01:01:58.449Z,824.36
2022-10-05T01:02:58.458Z,824.35
2022-10-05T01:03:58.458Z,824.31
2022-10-05T01:04:58.460Z,824.34
2022-10-05T01:05:58.472Z,824.30
2022-10-05T01:06:58.486Z,824.35
2022-10-05T01:07:58.502Z,824.34
2022-10-05T01:08:58.517Z,824.29
2022-10-05T01:09:58.529Z,824.30
2022-10-05T01:10:58.540Z,824.28
2022-10-05T01:11:58.557Z,824.29
2022-10-05T01:12:58.571Z,824.30
2022-10-05T01:13:58.582Z,824.28
2022-10-05T01:14:58.597Z,824.28
2022-10-05T01:15:58.617Z,824.31
2022-10-05T01:16:58.663Z,824.30
2022-10-05T01:17:58.637Z,824.27
2022-10-05T01:18:58.676Z,824.24
2022-10-05T01:19:58.667Z,824.27
2022-10-05T01:20:58.684Z,824.26
2022-10-05T01:21:58.699Z,824.25
2022-10-05T01:22:58.709Z,824.24
2022-10-05T01:23:58.720Z,824.23
2022-10-05T01:24:58.736Z,824.25
2022-10-05T01:25:58.752Z,824.19
2022-10-05T01:26:58.763Z,824.22
2022-10-05T01:27:58.815Z,824.20
2022-10-05T01:28:58.802Z,824.20
2022-10-05T01:29:58.806Z,824.22
2022-10-05T01:30:58.815Z,824.20
2022-10-05T01:31:58.911Z,824.20
2022-10-05T01:32:58.946Z,824.14
2022-10-05T01:33:58.857Z,824.18
2022-10-05T01:34:58.901Z,824.19
2022-10-05T01:35:58.889Z,824.16
2022-10-05T01:36:58.898Z,824.19
2022-10-05T01:37:58.925Z,824.17
2022-10-05T01:38:58.926Z,824.15
2022-10-05T01:39:58.946Z,824.15
2022-10-05T01:40:58.953Z,824.14
2022-10-05T01:41:58.965Z,824.15
2022-10-05T01:42:58.983Z,824.10
2022-10-05T01:43:58.994Z,824.15
2022-10-05T01:44:59.013Z,824.11
2022-10-05T01:45:59.142Z,824.10
2022-10-05T01:46:59.042Z,824.12
2022-10-05T01:47:59.048Z,824.10
2022-10-05T01:48:59.197Z,824.12
2022-10-05T01:49:59.075Z,824.11
2022-10-05T01:50:59.187Z,824.08
2022-10-05T01:51:59.102Z,824.10
2022-10-05T01:52:59.127Z,824.06
2022-10-05T01:53:59.130Z,824.06
2022-10-05T01:54:59.147Z,824.02
2022-10-05T01:55:59.159Z,824.02
2022-10-05T01:56:59.173Z,824.04
2022-10-05T01:57:59.184Z,824.03
2022-10-05T01:58:59.201Z,824.00
2022-10-05T01:59:59.236Z,823.99
2022-10-05T02:00:59.313Z,823.99
2022-10-05T02:01:59.310Z,823.95
2022-10-05T02:02:59.255Z,823.98
2022-10-05T02:03:59.265Z,823.96
2022-10-05T02:05:02.265Z,823.96
2022-10-05T02:05:59.292Z,823.97
2022-10-05T02:06:59.332Z,823.98
2022-10-05T02:07:59.322Z,823.99
2022-10-05T02:08:59.337Z,823.99
2022-10-05T02:09:59.349Z,823.97
2022-10-05T02:10:59.367Z,823.95
2022-10-05T02:11:59.380Z,823.93
2022-10-05T02:12:59.388Z,823.93
2022-10-05T02:13:59.397Z,823.91
2022-10-05T02:14:59.415Z,823.89
2022-10-05T02:15:59.475Z,823.90
2022-10-05T02:16:59.445Z,823.90
2022-10-05T02:17:59.454Z,823.91
2022-10-05T02:18:59.474Z,823.87
2022-10-05T02:19:59.482Z,823.90
2022-10-05T02:20:59.499Z,823.90
2022-10-05T02:21:59.608Z,823.88
2022-10-05T02:22:59.550Z,823.86
2022-10-05T02:23:59.544Z,823.85
2022-10-05T02:24:59.551Z,823.83
2022-10-05T02:25:59.569Z,823.83
2022-10-05T02:26:59.574Z,823.80
2022-10-05T02:27:59.628Z,823.81
2022-10-05T02:28:59.610Z,823.79
2022-10-05T02:29:59.619Z,823.80
2022-10-05T02:30:59.629Z,823.78
2022-10-05T02:31:59.646Z,823.76
2022-10-05T02:32:59.656Z,823.80
2022-10-05T02:33:59.672Z,823.79
2022-10-05T02:34:59.684Z,823.75
2022-10-05T02:35:59.700Z,823.78
2022-10-05T02:36:59.709Z,823.75
2022-10-05T02:37:59.823Z,823.77
2022-10-05T02:38:59.764Z,823.78
2022-10-05T02:39:59.750Z,823.74
2022-10-05T02:40:59.769Z,823.72
2022-10-05T02:41:59.780Z,823.74
2022-10-05T02:42:59.791Z,823.75
2022-10-05T02:43:59.806Z,823.77
2022-10-05T02:44:59.821Z,823.74
2022-10-05T02:45:59.862Z,823.74
2022-10-05T02:46:59.845Z,823.74
2022-10-05T02:47:59.863Z,823.72
2022-10-05T02:48:59.878Z,823.74
2022-10-05T02:49:59.885Z,823.74
2022-10-05T02:50:59.902Z,823.70
2022-10-05T02:51:59.914Z,823.74
2022-10-05T02:52:59.931Z,823.71
2022-10-05T02:53:59.942Z,823.71
2022-10-05T02:54:59.986Z,823.73
2022-10-05T02:55:59.969Z,823.72
2022-10-05T02:56:59.983Z,823.70
2022-10-05T02:58:00.006Z,823.74
2022-10-05T02:59:00.004Z,823.72
2022-10-05T03:00:00.021Z,823.73
2022-10-05T03:01:00.107Z,823.71
2022-10-05T03:02:00.173Z,823.70
2022-10-05T03:03:00.062Z,823.70
2022-10-05T03:04:00.083Z,823.71
2022-10-05T03:05:00.143Z,823.70
2022-10-05T03:06:00.107Z,823.72
2022-10-05T03:07:00.113Z,823.73
2022-10-05T03:08:00.125Z,823.74
2022-10-05T03:09:00.148Z,823.73
2022-10-05T03:10:01.205Z,823.72
2022-10-05T03:11:00.194Z,823.71
2022-10-05T03:12:00.183Z,823.72
2022-10-05T03:13:00.193Z,823.73
2022-10-05T03:14:00.224Z,823.69
2022-10-05T03:15:00.234Z,823.68
2022-10-05T03:16:00.319Z,823.70
2022-10-05T03:17:00.251Z,823.70
2022-10-05T03:18:00.261Z,823.69
2022-10-05T03:19:00.273Z,823.68
2022-10-05T03:20:00.290Z,823.71
2022-10-05T03:21:00.402Z,823.70
2022-10-05T03:22:00.330Z,823.73
2022-10-05T03:23:00.331Z,823.72
2022-10-05T03:24:00.342Z,823.73
2022-10-05T03:25:00.359Z,823.72
2022-10-05T03:26:00.468Z,823.68
2022-10-05T03:27:00.403Z,823.70
2022-10-05T03:28:00.450Z,823.69
2022-10-05T03:29:00.409Z,823.70
2022-10-05T03:30:00.429Z,823.71
2022-10-05T03:31:00.577Z,823.70
2022-10-05T03:32:00.447Z,823.70
2022-10-05T03:33:00.461Z,823.70
2022-10-05T03:34:00.471Z,823.71
2022-10-05T03:35:00.489Z,823.70
2022-10-05T03:36:00.498Z,823.72
2022-10-05T03:37:00.510Z,823.69
2022-10-05T03:38:00.527Z,823.67
2022-10-05T03:39:00.536Z,823.68
2022-10-05T03:40:00.552Z,823.70
2022-10-05T03:41:00.567Z,823.70
2022-10-05T03:42:00.580Z,823.69
2022-10-05T03:43:00.618Z,823.70
2022-10-05T03:44:00.608Z,823.76
2022-10-05T03:45:00.618Z,823.72
2022-10-05T03:46:00.711Z,823.73
2022-10-05T03:47:00.645Z,823.75
2022-10-05T03:48:01.578Z,823.78
2022-10-05T03:49:00.675Z,823.75
2022-10-05T03:50:00.685Z,823.76
2022-10-05T03:51:00.709Z,823.77
2022-10-05T03:52:00.714Z,823.73
2022-10-05T03:53:00.733Z,823.75
2022-10-05T03:54:00.733Z,823.77
2022-10-05T03:55:00.755Z,823.76
2022-10-05T03:56:03.069Z,823.76
2022-10-05T03:57:00.782Z,823.77
2022-10-05T03:58:00.796Z,823.79
2022-10-05T03:59:00.943Z,823.78
2022-10-05T04:00:00.823Z,823.81
2022-10-05T04:01:00.832Z,823.79
2022-10-05T04:02:00.926Z,823.79
2022-10-05T04:03:00.957Z,823.84
2022-10-05T04:04:00.880Z,823.79
2022-10-05T04:05:00.886Z,823.78
2022-10-05T04:06:00.901Z,823.78
2022-10-05T04:07:00.913Z,823.81
2022-10-05T04:08:00.922Z,823.80
2022-10-05T04:09:00.937Z,823.79
2022-10-05T04:10:00.958Z,823.81
2022-10-05T04:11:00.961Z,823.77
2022-10-05T04:12:00.969Z,823.78
2022-10-05T04:13:01.011Z,823.80
2022-10-05T04:14:00.996Z,823.80
2022-10-05T04:15:01.036Z,823.77
2022-10-05T04:16:01.116Z,823.78
2022-10-05T04:17:01.037Z,823.78
2022-10-05T04:18:01.054Z,823.77
2022-10-05T04:19:01.064Z,823.79
2022-10-05T04:20:01.076Z,823.78
2022-10-05T04:21:01.092Z,823.79
2022-10-05T04:22:01.102Z,823.83
2022-10-05T04:23:01.113Z,823.78
2022-10-05T04:24:01.126Z,823.81
2022-10-05T04:25:01.139Z,823.86
2022-10-05T04:26:01.153Z,823.80
2022-10-05T04:27:01.169Z,823.81
2022-10-05T04:28:01.269Z,823.84
2022-10-05T04:29:01.195Z,823.81
2022-10-05T04:30:01.204Z,823.79
2022-10-05T04:31:01.325Z,823.82
2022-10-05T04:32:01.228Z,823.82
2022-10-05T04:33:01.249Z,823.83
2022-10-05T04:34:01.272Z,823.80
2022-10-05T04:35:01.270Z,823.79
2022-10-05T04:36:01.287Z,823.78
2022-10-05T04:37:01.310Z,823.84
2022-10-05T04:38:01.310Z,823.77
2022-10-05T04:39:01.321Z,823.80
2022-10-05T04:40:01.334Z,823.83
2022-10-05T04:41:01.348Z,823.84
2022-10-05T04:42:01.360Z,823.82
2022-10-05T04:43:01.378Z,823.79
2022-10-05T04:44:01.392Z,823.79
2022-10-05T04:45:01.405Z,823.83
2022-10-05T04:46:01.412Z,823.78
2022-10-05T04:47:01.524Z,823.81
2022-10-05T04:48:01.438Z,823.82
2022-10-05T04:49:01.455Z,823.83
2022-10-05T04:50:01.463Z,823.87
2022-10-05T04:51:01.474Z,823.83
2022-10-05T04:52:01.488Z,823.85
2022-10-05T04:53:01.505Z,823.86
2022-10-05T04:54:01.516Z,823.88
2022-10-05T04:55:01.530Z,823.91
2022-10-05T04:56:01.544Z,823.89
2022-10-05T04:57:01.562Z,823.90
2022-10-05T04:58:01.577Z,823.90
2022-10-05T04:59:01.584Z,823.89
2022-10-05T05:00:01.616Z,823.93
2022-10-05T05:01:01.674Z,823.87
2022-10-05T05:02:01.621Z,823.92
2022-10-05T05:03:01.659Z,823.93
2022-10-05T05:04:01.746Z,823.90
2022-10-05T05:05:01.658Z,823.93
2022-10-05T05:06:18.199Z,823.90
2022-10-05T05:07:01.688Z,823.91
2022-10-05T05:08:01.701Z,823.90
2022-10-05T05:09:01.710Z,823.89
2022-10-05T05:10:01.725Z,823.92
2022-10-05T05:11:01.739Z,823.93
2022-10-05T05:12:01.754Z,823.90
2022-10-05T05:13:01.763Z,823.91
2022-10-05T05:14:01.777Z,823.95
2022-10-05T05:15:01.797Z,823.96
2022-10-05T05:16:01.876Z,823.93
2022-10-05T05:17:01.815Z,823.99
2022-10-05T05:18:01.828Z,823.98
2022-10-05T05:19:01.870Z,823.95
2022-10-05T05:20:01.860Z,823.96
2022-10-05T05:21:01.875Z,823.93
2022-10-05T05:22:01.882Z,823.94
2022-10-05T05:23:01.894Z,823.94
2022-10-05T05:24:01.903Z,823.96
2022-10-05T05:25:01.917Z,823.95
2022-10-05T05:26:01.927Z,823.97
2022-10-05T05:27:01.950Z,823.96
2022-10-05T05:28:02.054Z,823.98
2022-10-05T05:29:01.973Z,823.97
2022-10-05T05:30:01.989Z,823.98
2022-10-05T05:31:02.101Z,824.00
2022-10-05T05:32:02.013Z,824.00
2022-10-05T05:33:02.022Z,824.01
2022-10-05T05:34:02.036Z,824.00
2022-10-05T05:35:02.070Z,824.01
2022-10-05T05:36:02.066Z,824.04
2022-10-05T05:37:02.075Z,824.05
2022-10-05T05:38:02.084Z,824.04
2022-10-05T05:39:02.099Z,824.03
2022-10-05T05:40:02.111Z,824.05
2022-10-05T05:41:02.127Z,824.03
2022-10-05T05:42:02.139Z,824.08
2022-10-05T05:43:02.151Z,824.07
2022-10-05T05:44:02.182Z,824.09
2022-10-05T05:45:02.178Z,824.10
2022-10-05T05:46:02.188Z,824.15
2022-10-05T05:47:04.528Z,824.13
2022-10-05T05:48:02.218Z,824.14
2022-10-05T05:49:02.230Z,824.15
2022-10-05T05:50:06.930Z,824.15
2022-10-05T05:51:02.312Z,824.19
2022-10-05T05:52:02.273Z,824.19
2022-10-05T05:53:02.279Z,824.15
2022-10-05T05:54:02.296Z,824.22
2022-10-05T05:55:02.308Z,824.22
2022-10-05T05:56:02.320Z,824.19
2022-10-05T05:57:02.337Z,824.24
2022-10-05T05:58:02.351Z,824.26
2022-10-05T05:59:02.365Z,824.24
2022-10-05T06:00:02.375Z,824.21
2022-10-05T06:01:02.393Z,824.21
2022-10-05T06:02:02.505Z,824.18
2022-10-05T06:03:02.591Z,824.20
2022-10-05T06:04:02.426Z,824.24
2022-10-05T06:05:02.438Z,824.21
2022-10-05T06:06:02.445Z,824.20
2022-10-05T06:07:02.552Z,824.21
2022-10-05T06:08:02.477Z,824.21
2022-10-05T06:09:02.493Z,824.20
2022-10-05T06:10:02.508Z,824.19
2022-10-05T06:11:02.515Z,824.22
2022-10-05T06:12:02.524Z,824.25
2022-10-05T06:13:02.539Z,824.22
2022-10-05T06:14:02.571Z,824.21
2022-10-05T06:15:02.569Z,824.18
2022-10-05T06:16:02.641Z,824.22
2022-10-05T06:17:02.612Z,824.21
2022-10-05T06:18:02.606Z,824.24
2022-10-05T06:19:02.622Z,824.24
2022-10-05T06:20:05.438Z,824.20
2022-10-05T06:21:02.659Z,824.24
2022-10-05T06:22:02.657Z,824.22
2022-10-05T06:23:03.169Z,824.24
2022-10-05T06:24:02.685Z,824.26
2022-10-05T06:25:02.693Z,824.23
2022-10-05T06:26:04.997Z,824.23
2022-10-05T06:27:02.720Z,824.25
2022-10-05T06:28:02.808Z,824.26
2022-10-05T06:29:02.753Z,824.29
2022-10-05T06:30:02.761Z,824.29
2022-10-05T06:31:02.771Z,824.27
2022-10-05T06:32:02.847Z,824.25
2022-10-05T06:33:02.795Z,824.27
2022-10-05T06:34:02.813Z,824.27
2022-10-05T06:35:02.828Z,824.25
2022-10-05T06:36:02.831Z,824.25
2022-10-05T06:37:02.848Z,824.27
2022-10-05T06:38:02.975Z,824.30
2022-10-05T06:39:02.909Z,824.25
2022-10-05T06:40:02.892Z,824.30
2022-10-05T06:41:02.902Z,824.29
2022-10-05T06:42:02.914Z,824.25
2022-10-05T06:43:02.923Z,824.23
2022-10-05T06:44:02.941Z,824.25
2022-10-05T06:45:02.962Z,824.26
2022-10-05T06:46:03.053Z,824.26
2022-10-05T06:47:02.978Z,824.25
2022-10-05T06:48:05.572Z,824.26
2022-10-05T06:49:03.013Z,824.31
2022-10-05T06:50:03.016Z,824.26
2022-10-05T06:51:03.023Z,824.25
2022-10-05T06:52:03.042Z,824.29
2022-10-05T06:53:03.055Z,824.30
2022-10-05T06:54:03.066Z,824.29
2022-10-05T06:55:03.128Z,824.31
2022-10-05T06:56:03.091Z,824.30
2022-10-05T06:57:03.106Z,824.31
2022-10-05T06:58:03.119Z,824.30
2022-10-05T06:59:03.136Z,824.29
2022-10-05T07:00:03.144Z,824.33
2022-10-05T07:01:03.207Z,824.29
2022-10-05T07:02:03.231Z,824.34
2022-10-05T07:03:03.200Z,824.36
2022-10-05T07:04:03.197Z,824.32
2022-10-05T07:05:03.228Z,824.30
2022-10-05T07:06:03.221Z,824.34
2022-10-05T07:07:03.234Z,824.34
2022-10-05T07:08:03.245Z,824.33
2022-10-05T07:09:03.271Z,824.36
2022-10-05T07:10:03.271Z,824.37
2022-10-05T07:11:03.426Z,824.37
2022-10-05T07:12:05.435Z,824.38
2022-10-05T07:13:03.314Z,824.41
2022-10-05T07:14:03.329Z,824.39
2022-10-05T07:15:03.355Z,824.39
2022-10-05T07:16:03.464Z,824.41
2022-10-05T07:17:03.373Z,824.45
2022-10-05T07:18:03.375Z,824.41
2022-10-05T07:19:03.391Z,824.41
2022-10-05T07:20:03.417Z,824.42
2022-10-05T07:21:03.416Z,824.39
2022-10-05T07:22:03.484Z,824.42
2022-10-05T07:23:03.542Z,824.38
2022-10-05T07:24:03.458Z,824.39
2022-10-05T07:25:03.473Z,824.41
2022-10-05T07:26:03.483Z,824.41
2022-10-05T07:27:03.531Z,824.40
2022-10-05T07:28:03.566Z,824.42
2022-10-05T07:29:03.526Z,824.42
2022-10-05T07:30:03.541Z,824.43
2022-10-05T07:31:03.635Z,824.42
2022-10-05T07:32:03.562Z,824.39
2022-10-05T07:33:03.579Z,824.37
2022-10-05T07:34:03.591Z,824.41
2022-10-05T07:35:03.609Z,824.42
2022-10-05T07:36:03.619Z,824.39
2022-10-05T07:37:03.642Z,824.42
2022-10-05T07:38:03.646Z,824.42
2022-10-05T07:39:03.661Z,824.43
2022-10-05T07:40:03.775Z,824.44
2022-10-05T07:41:03.689Z,824.40
2022-10-05T07:42:03.703Z,824.46
2022-10-05T07:43:03.866Z,824.46
2022-10-05T07:44:05.030Z,824.43
2022-10-05T07:45:03.744Z,824.46
2022-10-05T07:46:03.880Z,824.47
2022-10-05T07:47:03.776Z,824.52
2022-10-05T07:48:03.787Z,824.48
2022-10-05T07:49:03.801Z,824.49
2022-10-05T07:50:03.814Z,824.48
2022-10-05T07:51:03.829Z,824.53
2022-10-05T07:52:03.843Z,824.51
2022-10-05T07:53:03.855Z,824.52
2022-10-05T07:54:03.878Z,824.51
2022-10-05T07:55:03.888Z,824.53
2022-10-05T07:56:03.901Z,824.52
2022-10-05T07:57:03.917Z,824.52
2022-10-05T07:58:03.929Z,824.52
2022-10-05T07:59:04.019Z,824.54
2022-10-05T08:00:03.957Z,824.55
2022-10-05T08:01:03.979Z,824.57
2022-10-05T08:02:04.136Z,824.56
2022-10-05T08:03:04.044Z,824.57
2022-10-05T08:04:04.012Z,824.56
2022-10-05T08:05:04.031Z,824.57
2022-10-05T08:06:04.042Z,824.59
2022-10-05T08:07:04.058Z,824.57
2022-10-05T08:08:04.081Z,824.60
2022-10-05T08:09:04.095Z,824.59
2022-10-05T08:10:04.199Z,824.59
2022-10-05T08:11:04.129Z,824.56
2022-10-05T08:12:04.142Z,824.62
2022-10-05T08:13:04.147Z,824.59
2022-10-05T08:14:04.162Z,824.60
2022-10-05T08:15:04.229Z,824.58
2022-10-05T08:16:04.260Z,824.59
2022-10-05T08:17:04.203Z,824.56
2022-10-05T08:18:04.223Z,824.55
2022-10-05T08:19:04.236Z,824.54
2022-10-05T08:20:04.251Z,824.53
2022-10-05T08:21:04.266Z,824.51
2022-10-05T08:22:04.282Z,824.50
2022-10-05T08:23:04.305Z,824.54
2022-10-05T08:24:04.310Z,824.54
2022-10-05T08:25:04.330Z,824.56
2022-10-05T08:26:04.339Z,824.57
2022-10-05T08:27:04.356Z,824.57
2022-10-05T08:28:04.429Z,824.59
2022-10-05T08:29:04.387Z,824.62
2022-10-05T08:30:04.399Z,824.54
2022-10-05T08:31:04.520Z,824.57
2022-10-05T08:32:04.431Z,824.56
2022-10-05T08:33:04.447Z,824.57
2022-10-05T08:34:04.462Z,824.59
2022-10-05T08:35:04.479Z,824.59
2022-10-05T08:36:04.490Z,824.60
2022-10-05T08:37:04.507Z,824.59
2022-10-05T08:38:04.522Z,824.58
2022-10-05T08:39:04.536Z,824.61
2022-10-05T08:40:04.556Z,824.57
2022-10-05T08:41:04.566Z,824.55
2022-10-05T08:42:04.580Z,824.59
2022-10-05T08:43:04.598Z,824.55
2022-10-05T08:44:04.612Z,824.57
2022-10-05T08:45:04.633Z,824.57
2022-10-05T08:46:04.696Z,824.52
2022-10-05T08:47:04.709Z,824.56
2022-10-05T08:48:04.673Z,824.53
2022-10-05T08:49:04.692Z,824.55
2022-10-05T08:50:04.709Z,824.55
2022-10-05T08:51:04.724Z,824.53
2022-10-05T08:52:04.749Z,824.62
2022-10-05T08:53:04.755Z,824.60
2022-10-05T08:54:04.873Z,824.58
2022-10-05T08:55:04.783Z,824.61
2022-10-05T08:56:04.805Z,824.62
2022-10-05T08:57:04.819Z,824.58
2022-10-05T08:58:04.833Z,824.59
2022-10-05T08:59:04.850Z,824.60
2022-10-05T09:00:04.866Z,824.63
2022-10-05T09:01:04.967Z,824.61
2022-10-05T09:02:05.004Z,824.59
2022-10-05T09:03:04.947Z,824.59
2022-10-05T09:04:04.930Z,824.56
2022-10-05T09:05:04.948Z,824.60
2022-10-05T09:06:04.968Z,824.60
2022-10-05T09:07:04.975Z,824.62
2022-10-05T09:08:04.997Z,824.61
2022-10-05T09:09:05.011Z,824.63
2022-10-05T09:10:05.023Z,824.64
2022-10-05T09:11:05.042Z,824.64
2022-10-05T09:12:05.061Z,824.64
2022-10-05T09:13:05.078Z,824.66
2022-10-05T09:14:05.100Z,824.65
2022-10-05T09:15:24.786Z,824.66
2022-10-05T09:16:05.183Z,824.65
2022-10-05T09:17:05.140Z,824.63
2022-10-05T09:18:05.157Z,824.63
2022-10-05T09:19:05.242Z,824.67
2022-10-05T09:20:05.191Z,824.64
2022-10-05T09:21:05.225Z,824.65
2022-10-05T09:22:05.223Z,824.62
2022-10-05T09:23:05.237Z,824.60
2022-10-05T09:24:05.257Z,824.66
2022-10-05T09:25:05.278Z,824.63
2022-10-05T09:26:05.295Z,824.61
2022-10-05T09:27:05.408Z,824.66
2022-10-05T09:28:05.403Z,824.63
2022-10-05T09:29:05.351Z,824.60
2022-10-05T09:30:05.367Z,824.57
2022-10-05T09:31:05.454Z,824.60
2022-10-05T09:32:05.396Z,824.59
2022-10-05T09:33:05.412Z,824.61
2022-10-05T09:34:05.431Z,824.62
2022-10-05T09:35:05.472Z,824.61
2022-10-05T09:36:05.469Z,824.64
2022-10-05T09:37:05.480Z,824.62
2022-10-05T09:38:05.495Z,824.62
2022-10-05T09:39:05.514Z,824.67
2022-10-05T09:40:05.533Z,824.64
2022-10-05T09:41:05.549Z,824.65
2022-10-05T09:42:05.584Z,824.64
2022-10-05T09:43:05.584Z,824.65
2022-10-05T09:44:05.601Z,824.65
2022-10-05T09:45:05.621Z,824.68
2022-10-05T09:46:05.738Z,824.65
2022-10-05T09:47:05.656Z,824.64
2022-10-05T09:48:05.679Z,824.66
2022-10-05T09:49:05.690Z,824.68
2022-10-05T09:50:05.708Z,824.64
2022-10-05T09:51:05.866Z,824.63
2022-10-05T09:52:05.746Z,824.63
2022-10-05T09:53:05.765Z,824.68
2022-10-05T09:54:05.779Z,824.68
2022-10-05T09:55:05.800Z,824.66
2022-10-05T09:56:05.818Z,824.67
2022-10-05T09:57:05.836Z,824.66
2022-10-05T09:58:05.857Z,824.63
2022-10-05T09:59:05.873Z,824.65
2022-10-05T10:01:09.471Z,824.66
2022-10-05T10:02:06.019Z,824.64
2022-10-05T10:03:05.988Z,824.63
2022-10-05T10:04:05.966Z,824.66
2022-10-05T10:05:05.982Z,824.61
2022-10-05T10:06:06.003Z,824.65
2022-10-05T10:07:06.105Z,824.63
2022-10-05T10:08:06.038Z,824.64
2022-10-05T10:09:06.060Z,824.61
2022-10-05T10:10:06.074Z,824.62
2022-10-05T10:11:06.097Z,824.66
2022-10-05T10:12:06.118Z,824.62
2022-10-05T10:13:06.134Z,824.62
2022-10-05T10:14:06.151Z,824.65
2022-10-05T10:15:06.172Z,824.62
2022-10-05T10:16:06.250Z,824.59
2022-10-05T10:17:06.206Z,824.62
2022-10-05T10:18:06.225Z,824.65
2022-10-05T10:19:06.249Z,824.62
2022-10-05T10:20:06.267Z,824.59
2022-10-05T10:21:06.281Z,824.58
2022-10-05T10:22:06.302Z,824.59
2022-10-05T10:23:06.342Z,824.64
2022-10-05T10:24:06.337Z,824.63
2022-10-05T10:25:06.359Z,824.65
2022-10-05T10:26:06.388Z,824.66
2022-10-05T10:27:06.396Z,824.68
2022-10-05T10:28:06.457Z,824.67
2022-10-05T10:29:06.434Z,824.68
2022-10-05T10:30:06.459Z,824.69
2022-10-05T10:31:06.553Z,824.67
2022-10-05T10:32:06.503Z,824.68
2022-10-05T10:33:06.510Z,824.65
2022-10-05T10:34:06.534Z,824.66
2022-10-05T10:35:06.551Z,824.73
2022-10-05T10:36:07.240Z,824.68
2022-10-05T10:37:06.586Z,824.71
2022-10-05T10:38:06.621Z,824.71
2022-10-05T10:39:06.647Z,824.75
2022-10-05T10:40:06.644Z,824.74
2022-10-05T10:41:06.670Z,824.73
2022-10-05T10:42:06.695Z,824.65
2022-10-05T10:43:06.700Z,824.71
2022-10-05T10:44:06.720Z,824.76
2022-10-05T10:45:06.742Z,824.73
2022-10-05T10:46:06.815Z,824.72
2022-10-05T10:47:06.786Z,824.73
2022-10-05T10:48:06.797Z,824.69
2022-10-05T10:49:06.821Z,824.67
2022-10-05T10:50:06.911Z,824.70
2022-10-05T10:51:06.876Z,824.65
2022-10-05T10:52:06.890Z,824.67
2022-10-05T10:53:06.901Z,824.66
2022-10-05T10:54:06.921Z,824.69
2022-10-05T10:55:06.972Z,824.67
2022-10-05T10:56:06.958Z,824.68
2022-10-05T10:57:06.990Z,824.67
2022-10-05T10:58:06.995Z,824.67
2022-10-05T10:59:07.025Z,824.71
2022-10-05T11:00:07.213Z,824.70
2022-10-05T11:01:07.059Z,824.67
2022-10-05T11:02:07.152Z,824.69
2022-10-05T11:03:07.239Z,824.68
2022-10-05T11:04:07.122Z,824.72
2022-10-05T11:05:07.144Z,824.68
2022-10-05T11:06:07.156Z,824.71
2022-10-05T11:07:07.175Z,824.70
2022-10-05T11:08:07.295Z,824.70
2022-10-05T11:09:07.218Z,824.64
2022-10-05T11:10:07.238Z,824.68
2022-10-05T11:11:07.285Z,824.66
2022-10-05T11:12:07.276Z,824.66
2022-10-05T11:13:07.304Z,824.66
2022-10-05T11:14:07.317Z,824.60
2022-10-05T11:15:07.400Z,824.62
2022-10-05T11:17:07.380Z,824.59
2022-10-05T11:18:07.399Z,824.56
2022-10-05T11:19:07.416Z,824.53
2022-10-05T11:20:07.543Z,824.57
2022-10-05T11:21:07.462Z,824.57
2022-10-05T11:22:07.481Z,824.58
2022-10-05T11:23:07.499Z,824.60
2022-10-05T11:24:07.526Z,824.58
2022-10-05T11:25:07.542Z,824.59
2022-10-05T11:26:07.571Z,824.58
2022-10-05T11:27:07.619Z,824.56
2022-10-05T11:28:07.678Z,824.53
2022-10-05T11:29:07.625Z,824.58
2022-10-05T11:30:07.647Z,824.54
2022-10-05T11:31:07.690Z,824.54
2022-10-05T11:32:07.686Z,824.58
2022-10-05T11:33:07.728Z,824.56
2022-10-05T11:34:07.746Z,824.59
2022-10-05T11:35:07.747Z,824.62
2022-10-05T11:36:07.774Z,824.61
2022-10-05T11:37:07.796Z,824.58
2022-10-05T11:38:07.812Z,824.62
2022-10-05T11:39:07.831Z,824.55
2022-10-05T11:40:07.855Z,824.60
2022-10-05T11:41:07.879Z,824.57
2022-10-05T11:42:07.898Z,824.56
2022-10-05T11:43:07.981Z,824.57
2022-10-05T11:44:07.938Z,824.59
2022-10-05T11:45:08.020Z,824.54
2022-10-05T11:46:08.041Z,824.55
2022-10-05T11:47:08.009Z,824.54
2022-10-05T11:48:08.025Z,824.51
2022-10-05T11:49:08.044Z,824.53
2022-10-05T11:50:08.063Z,824.50
2022-10-05T11:51:08.086Z,824.48
2022-10-05T11:52:08.103Z,824.50
2022-10-05T11:53:08.129Z,824.51
2022-10-05T11:54:08.150Z,824.53
2022-10-05T11:55:11.441Z,824.50
2022-10-05T11:56:08.188Z,824.51
2022-10-05T11:57:08.210Z,824.50
2022-10-05T11:58:08.232Z,824.51
2022-10-05T11:59:08.331Z,824.48
2022-10-05T12:00:08.280Z,824.48
2022-10-05T12:01:08.394Z,824.48
2022-10-05T12:02:08.316Z,824.47
2022-10-05T12:03:08.435Z,824.46
2022-10-05T12:04:08.449Z,824.51
2022-10-05T12:05:08.376Z,824.43
2022-10-05T12:06:08.404Z,824.50
2022-10-05T12:07:08.420Z,824.44
2022-10-05T12:08:08.442Z,824.44
2022-10-05T12:09:08.460Z,824.51
2022-10-05T12:10:08.486Z,824.46
2022-10-05T12:11:08.501Z,824.44
2022-10-05T12:12:08.528Z,824.45
2022-10-05T12:13:08.554Z,824.44
2022-10-05T12:14:08.596Z,824.45
2022-10-05T12:15:08.623Z,824.45
2022-10-05T12:16:08.623Z,824.44
2022-10-05T12:17:08.628Z,824.43
2022-10-05T12:18:08.648Z,824.42
2022-10-05T12:19:08.668Z,824.43
2022-10-05T12:20:08.689Z,824.41
2022-10-05T12:21:08.709Z,824.39
2022-10-05T12:22:08.730Z,824.35
2022-10-05T12:23:08.847Z,824.36
2022-10-05T12:24:08.770Z,824.36
2022-10-05T12:25:08.787Z,824.36
2022-10-05T12:26:08.809Z,824.33
2022-10-05T12:27:08.831Z,824.34
2022-10-05T12:28:08.899Z,824.34
2022-10-05T12:29:08.889Z,824.40
2022-10-05T12:30:08.907Z,824.37
2022-10-05T12:31:09.078Z,824.39